Time;durP1;ratioP1;P1;durP2;ratioP2;P2;SDS_P1;SDS_P2;PMS_P1;PMS_P2;Temp;Humidity;BMP_temperature;BMP_pressure;BME280_temperature;BME280_humidity;BME280_pressure;Samples;Min_cycle;Max_cycle;Signal;HPM_P1;HPM_P2
2021/09/05 00:00:28;;;;;;;34.42;17.40;;;12.70;99.90;;;;;;5078738;28;20541;-77
2021/09/05 00:02:54;;;;;;;30.20;17.70;;;12.70;99.90;;;;;;5065941;28;20603;-76
2021/09/05 00:05:20;;;;;;;25.50;16.98;;;12.70;99.90;;;;;;5088370;28;20060;-76
2021/09/05 00:07:46;;;;;;;30.38;17.33;;;12.60;99.90;;;;;;5069515;28;20040;-76
2021/09/05 00:10:12;;;;;;;27.58;17.38;;;12.60;99.90;;;;;;5061418;28;20166;-75
2021/09/05 00:12:39;;;;;;;27.92;18.00;;;12.60;99.90;;;;;;5086692;28;20499;-76
2021/09/05 00:15:06;;;;;;;30.15;17.13;;;12.60;99.90;;;;;;5090489;28;20043;-75
2021/09/05 00:17:32;;;;;;;30.48;17.20;;;12.60;99.90;;;;;;5095650;28;20057;-74
2021/09/05 00:19:58;;;;;;;28.42;16.30;;;12.60;99.90;;;;;;5077291;28;20040;-75
2021/09/05 00:22:24;;;;;;;33.05;19.25;;;12.50;99.90;;;;;;5069158;28;20046;-75
2021/09/05 00:24:50;;;;;;;29.40;16.75;;;12.50;99.90;;;;;;5084670;28;20051;-75
2021/09/05 00:27:16;;;;;;;34.13;18.27;;;12.50;99.90;;;;;;5070931;28;20039;-75
2021/09/05 00:29:44;;;;;;;29.90;18.27;;;12.50;99.90;;;;;;5093764;28;20040;-75
2021/09/05 00:32:10;;;;;;;34.75;17.15;;;12.50;99.90;;;;;;5079489;28;20050;-75
2021/09/05 00:34:36;;;;;;;28.88;17.50;;;12.40;99.90;;;;;;5082226;28;20035;-75
2021/09/05 00:37:05;;;;;;;37.60;17.95;;;12.40;99.90;;;;;;5069219;28;20057;-75
2021/09/05 00:39:31;;;;;;;36.50;18.98;;;12.40;99.90;;;;;;5086563;28;20056;-75
2021/09/05 00:41:57;;;;;;;30.92;18.65;;;12.30;99.90;;;;;;5066618;28;20054;-75
2021/09/05 00:44:22;;;;;;;33.67;19.05;;;12.30;99.90;;;;;;5066943;28;20032;-74
2021/09/05 00:46:48;;;;;;;31.17;19.27;;;12.30;99.90;;;;;;5081183;28;20835;-75
2021/09/05 00:49:14;;;;;;;35.22;19.52;;;12.30;99.90;;;;;;5067085;28;20532;-75
2021/09/05 00:51:42;;;;;;;36.05;19.70;;;12.30;99.90;;;;;;5100680;28;20040;-75
2021/09/05 00:54:09;;;;;;;37.53;20.63;;;12.40;99.90;;;;;;5081600;28;20102;-74
2021/09/05 00:56:37;;;;;;;34.67;19.85;;;12.30;99.90;;;;;;5081699;28;20047;-74
2021/09/05 00:59:08;;;;;;;34.55;20.13;;;12.30;99.90;;;;;;5083867;28;20079;-74
2021/09/05 01:01:39;;;;;;;34.45;18.60;;;12.40;99.90;;;;;;5098626;28;20119;-75
2021/09/05 01:04:06;;;;;;;33.40;18.75;;;12.30;99.90;;;;;;5098107;28;20039;-75
2021/09/05 01:06:37;;;;;;;31.27;18.88;;;12.30;99.90;;;;;;5080623;28;20448;-75
2021/09/05 01:09:05;;;;;;;32.28;18.65;;;12.30;99.90;;;;;;5084398;28;20136;-75
2021/09/05 01:11:32;;;;;;;33.70;18.17;;;12.30;99.90;;;;;;5084096;28;20101;-75
2021/09/05 01:13:59;;;;;;;33.13;18.70;;;12.20;99.90;;;;;;5085129;28;20044;-76
2021/09/05 01:16:32;;;;;;;34.30;19.35;;;12.20;99.90;;;;;;5091257;28;20057;-75
2021/09/05 01:19:06;;;;;;;33.72;19.83;;;12.10;99.90;;;;;;5082953;28;20047;-75
2021/09/05 01:21:35;;;;;;;31.38;17.98;;;12.10;99.90;;;;;;5085117;28;20045;-75
2021/09/05 01:24:02;;;;;;;29.95;18.35;;;12.10;99.90;;;;;;5083701;28;20046;-75
2021/09/05 01:26:36;;;;;;;29.30;17.67;;;12.00;99.90;;;;;;5102199;28;20113;-76
2021/09/05 01:29:03;;;;;;;25.55;16.55;;;11.90;99.90;;;;;;5086830;28;20489;-75
2021/09/05 01:31:45;;;;;;;32.85;18.40;;;11.90;99.90;;;;;;5085621;28;20040;-75
2021/09/05 01:34:12;;;;;;;30.02;18.20;;;11.80;99.90;;;;;;5116114;27;20050;-76
2021/09/05 01:36:39;;;;;;;26.83;17.85;;;11.80;99.90;;;;;;5104689;28;20110;-75
2021/09/05 01:39:07;;;;;;;29.15;17.45;;;11.80;99.90;;;;;;5139143;27;20047;-75
2021/09/05 01:41:33;;;;;;;30.77;17.90;;;11.80;99.90;;;;;;5090494;27;20067;-75
2021/09/05 01:44:01;;;;;;;30.70;19.55;;;11.80;99.90;;;;;;5108350;27;20072;-76
2021/09/05 01:46:27;;;;;;;29.95;17.08;;;11.80;99.90;;;;;;5085331;27;20501;-75
2021/09/05 01:48:53;;;;;;;29.92;18.45;;;11.70;99.90;;;;;;5087698;27;20446;-76
2021/09/05 01:51:22;;;;;;;37.80;21.00;;;11.70;99.90;;;;;;5136784;27;20068;-75
2021/09/05 01:53:47;;;;;;;26.48;17.13;;;11.70;99.90;;;;;;5105189;27;20035;-75
2021/09/05 01:56:14;;;;;;;30.52;18.45;;;11.70;99.90;;;;;;5107004;27;20096;-75
2021/09/05 01:58:40;;;;;;;37.25;20.70;;;11.70;99.90;;;;;;5088669;27;20047;-75
2021/09/05 02:01:06;;;;;;;34.08;20.27;;;11.70;99.90;;;;;;5082137;28;20207;-76
2021/09/05 02:03:31;;;;;;;34.45;20.70;;;11.70;99.90;;;;;;5103606;27;20167;-76
2021/09/05 02:05:57;;;;;;;36.15;21.17;;;11.70;99.90;;;;;;5136495;27;20355;-75
2021/09/05 02:08:23;;;;;;;37.67;21.00;;;11.60;99.90;;;;;;5076854;27;20043;-75
2021/09/05 02:10:49;;;;;;;45.70;23.20;;;11.60;99.90;;;;;;5107392;27;20051;-76
2021/09/05 02:13:15;;;;;;;56.30;25.75;;;11.60;99.90;;;;;;5074793;27;20069;-76
2021/09/05 02:15:41;;;;;;;49.30;24.48;;;11.60;99.90;;;;;;5086691;27;20070;-74
2021/09/05 02:18:06;;;;;;;52.78;26.05;;;11.60;99.90;;;;;;5104955;27;20051;-75
2021/09/05 02:20:33;;;;;;;45.28;24.80;;;11.60;99.90;;;;;;5120837;27;20063;-76
2021/09/05 02:23:01;;;;;;;48.33;24.70;;;11.70;99.90;;;;;;5101015;27;20131;-76
2021/09/05 02:25:27;;;;;;;45.42;24.52;;;11.70;99.90;;;;;;5093939;28;20036;-76
2021/09/05 02:27:53;;;;;;;38.28;22.10;;;11.70;99.90;;;;;;5094883;27;20575;-75
2021/09/05 02:30:19;;;;;;;46.13;25.13;;;11.60;99.90;;;;;;5119704;27;20042;-76
2021/09/05 02:32:45;;;;;;;35.47;21.90;;;11.60;99.90;;;;;;5098714;27;20043;-76
2021/09/05 02:35:11;;;;;;;33.85;20.92;;;11.60;99.90;;;;;;5079670;28;20046;-76
2021/09/05 02:37:38;;;;;;;31.65;21.63;;;11.60;99.90;;;;;;5113744;27;20043;-76
2021/09/05 02:40:07;;;;;;;36.88;21.77;;;11.60;99.90;;;;;;5095097;27;20059;-75
2021/09/05 02:42:34;;;;;;;33.37;20.53;;;11.60;99.90;;;;;;5106270;27;20053;-76
2021/09/05 02:45:01;;;;;;;31.60;19.13;;;11.60;99.90;;;;;;5108751;27;20078;-76
2021/09/05 02:47:27;;;;;;;32.08;20.92;;;11.50;99.90;;;;;;5068034;27;20043;-76
2021/09/05 02:49:53;;;;;;;29.80;19.63;;;11.50;99.90;;;;;;5101660;27;20493;-76
2021/09/05 02:52:19;;;;;;;34.47;21.65;;;11.40;99.90;;;;;;5103037;27;20050;-75
2021/09/05 02:54:45;;;;;;;31.83;19.70;;;11.40;99.90;;;;;;5119210;27;20828;-75
2021/09/05 02:57:11;;;;;;;32.60;20.40;;;11.30;99.90;;;;;;5104586;27;20043;-76
2021/09/05 02:59:36;;;;;;;31.67;19.70;;;11.20;99.90;;;;;;5072677;27;20067;-76
2021/09/05 03:02:02;;;;;;;31.50;18.98;;;11.20;99.90;;;;;;5103331;27;20043;-76
2021/09/05 03:04:28;;;;;;;29.08;19.38;;;11.10;99.90;;;;;;5089122;27;20035;-75
2021/09/05 03:06:55;;;;;;;27.58;18.52;;;11.10;99.90;;;;;;5086695;27;20054;-75
2021/09/05 03:09:21;;;;;;;29.48;18.65;;;11.00;99.90;;;;;;5083169;27;20447;-75
2021/09/05 03:11:47;;;;;;;25.45;18.02;;;11.00;99.90;;;;;;5074334;27;20082;-75
2021/09/05 03:14:13;;;;;;;28.27;18.92;;;10.90;99.90;;;;;;5085426;27;20109;-75
2021/09/05 03:16:39;;;;;;;27.60;18.75;;;10.90;99.90;;;;;;5140871;27;20046;-75
2021/09/05 03:19:05;;;;;;;25.20;18.38;;;10.90;99.90;;;;;;5073254;27;20043;-75
2021/09/05 03:21:31;;;;;;;30.23;19.65;;;10.80;99.90;;;;;;5099198;27;20647;-75
2021/09/05 03:23:57;;;;;;;28.70;19.45;;;10.70;99.90;;;;;;5089328;27;20149;-75
2021/09/05 03:26:22;;;;;;;25.25;17.60;;;10.70;99.90;;;;;;5085173;27;20585;-75
2021/09/05 03:28:51;;;;;;;27.98;19.80;;;10.80;99.90;;;;;;5053244;27;20035;-75
2021/09/05 03:31:17;;;;;;;32.47;19.95;;;10.80;99.90;;;;;;5088843;27;20164;-76
2021/09/05 03:33:43;;;;;;;28.55;20.10;;;10.80;99.90;;;;;;5066380;27;20494;-75
2021/09/05 03:36:09;;;;;;;30.85;20.35;;;10.80;99.90;;;;;;5089914;27;20035;-75
2021/09/05 03:38:34;;;;;;;28.85;19.67;;;10.80;99.90;;;;;;5103451;27;20043;-76
2021/09/05 03:41:00;;;;;;;34.38;20.98;;;10.70;99.90;;;;;;5099885;27;20100;-75
2021/09/05 03:43:26;;;;;;;26.95;19.88;;;10.70;99.90;;;;;;5104757;27;20039;-75
2021/09/05 03:45:52;;;;;;;28.08;19.35;;;10.70;99.90;;;;;;5087625;27;20063;-76
2021/09/05 03:48:17;;;;;;;32.25;21.60;;;10.70;99.90;;;;;;5085461;27;20544;-75
2021/09/05 03:50:43;;;;;;;27.38;18.65;;;10.70;99.90;;;;;;5069095;27;20042;-76
2021/09/05 03:53:09;;;;;;;25.90;18.20;;;10.80;99.90;;;;;;5084017;27;20043;-75
2021/09/05 03:55:35;;;;;;;27.17;18.83;;;10.70;99.90;;;;;;5105725;27;20090;-75
2021/09/05 03:58:02;;;;;;;22.55;16.17;;;10.70;99.90;;;;;;5073894;27;20059;-75
2021/09/05 04:00:28;;;;;;;34.85;19.65;;;10.70;99.90;;;;;;5069089;27;20091;-75
2021/09/05 04:02:54;;;;;;;23.63;16.27;;;10.70;99.90;;;;;;5084506;27;20166;-75
2021/09/05 04:05:20;;;;;;;21.33;16.23;;;10.70;99.90;;;;;;5101524;27;20176;-75
2021/09/05 04:10:31;;;;;;;24.83;18.55;;;10.60;99.90;;;;;;5083141;28;20051;-75
2021/09/05 04:12:57;;;;;;;29.77;21.00;;;10.60;99.90;;;;;;5067016;28;20593;-75
2021/09/05 04:15:23;;;;;;;25.92;19.33;;;10.60;99.90;;;;;;5067039;28;20055;-75
2021/09/05 04:17:49;;;;;;;27.92;19.35;;;10.60;99.90;;;;;;5068044;28;20047;-75
2021/09/05 04:20:16;;;;;;;24.55;18.17;;;10.60;99.90;;;;;;5084048;28;20072;-75
2021/09/05 04:22:42;;;;;;;24.98;18.77;;;10.60;99.90;;;;;;5067119;28;20065;-75
2021/09/05 04:25:09;;;;;;;35.30;20.25;;;10.60;99.90;;;;;;5088133;28;20035;-75
2021/09/05 04:27:35;;;;;;;20.40;14.55;;;10.60;99.90;;;;;;5069578;28;20140;-75
2021/09/05 04:30:00;;;;;;;22.02;16.55;;;10.50;99.90;;;;;;5050178;28;20210;-74
2021/09/05 04:32:29;;;;;;;20.73;15.98;;;10.50;99.90;;;;;;5068447;28;20036;-75
2021/09/05 04:34:55;;;;;;;19.30;15.35;;;10.50;99.90;;;;;;5071281;28;20054;-75
2021/09/05 04:37:20;;;;;;;20.90;16.55;;;10.50;99.90;;;;;;5068735;28;20070;-75
2021/09/05 04:39:47;;;;;;;18.92;14.90;;;10.40;99.90;;;;;;5071806;28;20140;-75
2021/09/05 04:42:13;;;;;;;23.45;17.38;;;10.40;99.90;;;;;;5078659;28;20139;-74
2021/09/05 04:44:39;;;;;;;22.92;17.58;;;10.40;99.90;;;;;;5079440;28;20051;-75
2021/09/05 04:47:05;;;;;;;27.98;19.52;;;10.40;99.90;;;;;;5084419;28;21120;-74
2021/09/05 04:49:35;;;;;;;29.77;22.13;;;10.40;99.90;;;;;;5105500;28;20039;-75
2021/09/05 04:52:01;;;;;;;33.38;21.67;;;10.40;99.90;;;;;;5068990;28;20042;-75
2021/09/05 04:54:27;;;;;;;32.17;22.20;;;10.50;99.90;;;;;;5103905;28;20043;-75
2021/09/05 04:56:53;;;;;;;28.83;19.42;;;10.50;99.90;;;;;;5085831;28;20047;-75
2021/09/05 04:59:19;;;;;;;24.70;18.35;;;10.50;99.90;;;;;;5069577;27;20039;-75
2021/09/05 05:01:45;;;;;;;21.50;17.25;;;10.50;99.90;;;;;;5085811;28;20047;-75
2021/09/05 05:04:11;;;;;;;23.25;17.45;;;10.50;99.90;;;;;;5086362;28;20082;-75
2021/09/05 05:06:41;;;;;;;24.27;17.77;;;10.50;99.90;;;;;;5086167;28;20042;-75
2021/09/05 05:09:09;;;;;;;29.33;19.80;;;10.50;99.90;;;;;;5086402;28;20054;-75
2021/09/05 05:11:34;;;;;;;28.30;20.55;;;10.50;99.90;;;;;;5097076;28;20050;-74
2021/09/05 05:14:00;;;;;;;33.22;22.67;;;10.50;99.90;;;;;;5132292;27;20039;-74
2021/09/05 05:16:26;;;;;;;31.83;22.85;;;10.50;99.90;;;;;;5102771;27;20752;-74
2021/09/05 05:18:52;;;;;;;34.83;23.00;;;10.50;99.90;;;;;;5103385;27;20070;-74
2021/09/05 05:21:18;;;;;;;31.13;23.17;;;10.50;99.90;;;;;;5089164;27;20039;-74
2021/09/05 05:23:44;;;;;;;32.33;22.52;;;10.50;99.90;;;;;;5084550;27;20039;-74
2021/09/05 05:26:09;;;;;;;28.92;21.55;;;10.50;99.90;;;;;;5092958;27;20126;-74
2021/09/05 05:28:35;;;;;;;30.27;21.63;;;10.50;99.90;;;;;;5090366;27;20566;-75
2021/09/05 05:31:02;;;;;;;32.83;22.42;;;10.50;99.90;;;;;;5093148;27;20046;-75
2021/09/05 05:33:28;;;;;;;33.38;23.17;;;10.60;99.90;;;;;;5088243;27;20043;-75
2021/09/05 05:35:54;;;;;;;30.88;22.52;;;10.50;99.90;;;;;;5109137;27;20054;-75
2021/09/05 05:38:20;;;;;;;34.70;24.65;;;10.50;99.90;;;;;;5106528;27;20055;-75
2021/09/05 05:40:46;;;;;;;32.55;24.20;;;10.60;99.90;;;;;;5106570;27;20477;-75
2021/09/05 05:43:11;;;;;;;33.03;24.45;;;10.60;99.90;;;;;;5116638;27;20071;-75
2021/09/05 05:45:37;;;;;;;33.97;24.33;;;10.60;99.90;;;;;;5105431;27;20043;-75
2021/09/05 05:48:04;;;;;;;32.17;23.00;;;10.70;99.90;;;;;;5106612;27;20051;-75
2021/09/05 05:50:29;;;;;;;37.22;24.35;;;10.70;99.90;;;;;;5106850;27;20051;-74
2021/09/05 05:52:55;;;;;;;42.72;26.70;;;10.80;99.90;;;;;;5066018;27;20180;-75
2021/09/05 05:55:21;;;;;;;35.25;24.45;;;10.80;99.90;;;;;;5104463;27;20420;-75
2021/09/05 05:57:51;;;;;;;43.72;28.80;;;10.80;99.90;;;;;;5090937;27;20035;-75
2021/09/05 06:00:17;;;;;;;;;;;10.80;99.90;;;;;;5070856;27;20043;-75
2021/09/05 06:02:43;;;;;;;40.75;26.35;;;10.80;99.90;;;;;;5093183;27;19919;-75
2021/09/05 06:05:13;;;;;;;50.90;29.73;;;10.80;99.90;;;;;;5069297;27;20497;-74
2021/09/05 06:07:39;;;;;;;;;;;10.90;99.90;;;;;;5107474;27;20043;-75
2021/09/05 06:10:05;;;;;;;47.55;29.90;;;10.90;99.90;;;;;;5103722;27;20007;-75
2021/09/05 06:12:31;;;;;;;47.33;30.77;;;10.90;99.90;;;;;;5108041;27;20755;-75
2021/09/05 06:15:01;;;;;;;52.25;32.63;;;10.90;99.90;;;;;;5104980;27;20130;-73
2021/09/05 06:17:27;;;;;;;53.97;32.17;;;11.00;99.90;;;;;;5121313;27;20039;-75
2021/09/05 06:19:52;;;;;;;53.58;33.03;;;11.10;99.90;;;;;;5108248;27;20401;-75
2021/09/05 06:22:18;;;;;;;53.38;33.63;;;11.10;99.90;;;;;;5088006;27;20589;-73
2021/09/05 06:24:44;;;;;;;51.75;33.05;;;11.20;99.90;;;;;;5092870;27;20039;-73
2021/09/05 06:27:10;;;;;;;62.70;36.00;;;11.20;99.90;;;;;;5070607;27;20465;-73
2021/09/05 06:29:36;;;;;;;68.13;36.00;;;11.20;99.90;;;;;;5074169;27;20035;-73
2021/09/05 06:32:02;;;;;;;67.20;37.00;;;11.30;99.90;;;;;;5086769;27;20054;-73
2021/09/05 06:34:28;;;;;;;73.65;36.92;;;11.40;99.90;;;;;;5107104;27;20042;-74
2021/09/05 06:36:54;;;;;;;71.93;37.05;;;11.40;99.90;;;;;;5090134;27;20738;-74
2021/09/05 06:39:19;;;;;;;71.75;36.60;;;11.50;99.90;;;;;;5105319;27;20089;-74
2021/09/05 06:41:45;;;;;;;79.72;36.67;;;11.50;99.90;;;;;;5092228;27;20448;-73
2021/09/05 06:44:11;;;;;;;76.90;38.60;;;11.50;99.90;;;;;;5102033;27;20494;-74
2021/09/05 06:46:37;;;;;;;79.50;38.88;;;11.60;99.90;;;;;;5104929;27;20035;-74
2021/09/05 06:49:06;;;;;;;70.90;36.92;;;11.60;99.90;;;;;;5089387;27;20043;-74
2021/09/05 06:51:32;;;;;;;75.60;36.13;;;11.70;99.90;;;;;;5122558;27;20035;-75
2021/09/05 06:53:58;;;;;;;72.28;36.15;;;11.80;99.90;;;;;;5089201;27;20371;-74
2021/09/05 06:56:24;;;;;;;69.40;35.50;;;11.90;99.90;;;;;;5106955;27;20039;-74
2021/09/05 06:58:49;;;;;;;72.35;37.15;;;11.90;99.90;;;;;;5110026;27;20477;-74
2021/09/05 07:01:15;;;;;;;79.22;38.25;;;12.00;99.90;;;;;;5104573;27;20581;-74
2021/09/05 07:03:41;;;;;;;73.75;37.55;;;12.00;99.90;;;;;;5103100;27;20043;-74
2021/09/05 07:06:13;;;;;;;83.97;38.08;;;12.10;99.90;;;;;;5070577;27;20504;-73
2021/09/05 07:08:39;;;;;;;70.93;37.28;;;12.20;99.90;;;;;;5090338;27;20042;-74
2021/09/05 07:11:05;;;;;;;82.72;37.78;;;12.20;99.90;;;;;;5107533;27;20047;-75
2021/09/05 07:13:30;;;;;;;69.57;36.22;;;12.30;99.90;;;;;;5106176;27;20061;-75
2021/09/05 07:15:56;;;;;;;70.88;37.00;;;12.30;99.90;;;;;;5084490;28;20084;-76
2021/09/05 07:18:23;;;;;;;79.75;40.40;;;12.40;99.90;;;;;;5101139;28;20048;-75
2021/09/05 07:20:50;;;;;;;70.18;38.30;;;12.50;99.90;;;;;;5084172;28;20075;-75
2021/09/05 07:23:16;;;;;;;81.55;37.55;;;12.60;99.90;;;;;;5086991;28;20035;-75
2021/09/05 07:25:41;;;;;;;68.95;36.03;;;12.70;99.90;;;;;;5081789;28;20043;-75
2021/09/05 07:28:07;;;;;;;76.88;38.75;;;12.80;99.90;;;;;;5086189;28;20505;-76
2021/09/05 07:30:33;;;;;;;78.97;39.38;;;12.80;99.90;;;;;;5085491;28;20078;-75
2021/09/05 07:32:59;;;;;;;67.40;39.45;;;12.80;99.90;;;;;;5105195;28;20050;-75
2021/09/05 07:35:25;;;;;;;69.10;39.17;;;12.90;99.90;;;;;;5102961;28;20051;-75
2021/09/05 07:37:51;;;;;;;57.35;34.58;;;13.00;99.90;;;;;;5067499;28;20047;-75
2021/09/05 07:40:18;;;;;;;56.80;35.38;;;13.00;99.90;;;;;;5070441;28;20059;-76
2021/09/05 07:42:45;;;;;;;60.90;35.67;;;13.00;99.90;;;;;;5084259;28;20369;-76
2021/09/05 07:45:11;;;;;;;62.08;36.75;;;13.10;99.90;;;;;;5078607;28;20036;-76
2021/09/05 07:47:37;;;;;;;60.90;37.20;;;13.20;99.90;;;;;;5096631;28;20089;-75
2021/09/05 07:50:07;;;;;;;50.72;35.25;;;13.20;99.90;;;;;;5098975;28;20047;-74
2021/09/05 07:52:33;;;;;;;55.63;36.28;;;13.30;99.90;;;;;;5083402;28;20071;-74
2021/09/05 07:54:59;;;;;;;53.53;36.10;;;13.40;99.90;;;;;;5095673;28;20043;-76
2021/09/05 07:57:25;;;;;;;51.08;34.08;;;13.50;99.90;;;;;;5086709;28;20051;-76
2021/09/05 07:59:51;;;;;;;47.90;33.00;;;13.60;99.90;;;;;;5080176;28;20405;-75
2021/09/05 08:02:17;;;;;;;56.20;33.85;;;13.60;99.90;;;;;;5080056;28;20051;-74
2021/09/05 08:04:42;;;;;;;49.28;33.25;;;13.60;99.90;;;;;;5075944;28;20031;-75
2021/09/05 08:07:09;;;;;;;49.13;33.45;;;13.60;99.90;;;;;;5080715;28;20124;-76
2021/09/05 08:09:35;;;;;;;42.50;30.35;;;13.70;99.90;;;;;;5063641;28;20435;-75
2021/09/05 08:12:00;;;;;;;44.42;30.52;;;13.70;99.90;;;;;;5102550;28;20038;-75
2021/09/05 08:14:29;;;;;;;44.13;32.40;;;13.80;99.90;;;;;;5083187;28;20076;-75
2021/09/05 08:16:55;;;;;;;44.60;32.08;;;14.00;99.90;;;;;;5101180;28;20052;-76
2021/09/05 08:19:21;;;;;;;39.53;28.60;;;14.20;99.90;;;;;;5066295;28;20413;-75
2021/09/05 08:21:47;;;;;;;34.95;25.67;;;14.30;99.90;;;;;;5052996;28;20043;-76
2021/09/05 08:24:13;;;;;;;28.27;23.92;;;14.40;99.90;;;;;;5082234;28;20060;-76
2021/09/05 08:26:39;;;;;;;27.77;22.58;;;14.50;99.90;;;;;;5075980;28;20039;-76
2021/09/05 08:29:06;;;;;;;26.65;19.42;;;14.70;99.90;;;;;;5083506;28;20549;-75
2021/09/05 08:31:38;;;;;;;27.27;22.98;;;14.70;99.90;;;;;;5064599;28;20072;-75
2021/09/05 08:34:07;;;;;;;29.35;22.73;;;14.70;99.90;;;;;;5084141;28;20553;-75
2021/09/05 08:36:32;;;;;;;25.00;22.27;;;14.80;99.90;;;;;;5078107;28;20395;-76
2021/09/05 08:38:58;;;;;;;24.10;20.83;;;14.80;99.90;;;;;;5098401;28;20054;-76
2021/09/05 08:41:25;;;;;;;23.40;20.75;;;14.90;99.90;;;;;;5080040;28;20047;-76
2021/09/05 08:43:51;;;;;;;22.95;19.27;;;15.10;99.90;;;;;;5097777;28;20097;-76
2021/09/05 08:46:18;;;;;;;20.50;18.27;;;15.20;99.90;;;;;;5083451;28;20040;-76
2021/09/05 08:48:46;;;;;;;22.02;19.60;;;15.30;99.90;;;;;;5082798;28;20041;-75
2021/09/05 08:51:12;;;;;;;23.08;19.70;;;15.40;99.90;;;;;;5086109;28;20129;-76
2021/09/05 08:53:39;;;;;;;21.95;19.08;;;15.50;99.90;;;;;;5085845;28;20615;-75
2021/09/05 08:56:05;;;;;;;22.45;18.65;;;15.60;99.90;;;;;;5106427;28;20114;-75
2021/09/05 08:58:34;;;;;;;20.17;16.77;;;15.70;99.90;;;;;;5088428;28;20134;-75
2021/09/05 09:01:19;;;;;;;20.05;16.55;;;15.90;99.90;;;;;;5087179;28;20047;-75
2021/09/05 09:03:45;;;;;;;20.35;16.85;;;16.10;99.90;;;;;;5082413;28;20079;-75
2021/09/05 09:06:17;;;;;;;21.10;16.60;;;16.20;99.90;;;;;;5103610;28;20127;-75
2021/09/05 09:08:54;;;;;;;18.20;16.30;;;16.40;99.90;;;;;;5094447;28;20402;-74
2021/09/05 09:11:19;;;;;;;18.92;16.02;;;16.40;99.90;;;;;;5098469;28;20037;-74
2021/09/05 09:13:55;;;;;;;18.55;16.00;;;16.60;99.90;;;;;;5080665;28;20654;-75
2021/09/05 09:16:21;;;;;;;18.80;15.68;;;16.60;99.90;;;;;;5094763;28;20795;-75
2021/09/05 09:18:46;;;;;;;18.58;16.30;;;16.70;99.90;;;;;;5052993;28;20047;-75
2021/09/05 09:21:17;;;;;;;17.75;15.82;;;16.80;99.90;;;;;;5088154;28;20073;-74
2021/09/05 09:23:43;;;;;;;20.35;16.95;;;16.90;99.90;;;;;;5100987;28;20684;-75
2021/09/05 09:26:10;;;;;;;20.00;16.73;;;16.90;99.90;;;;;;5082989;28;20089;-75
2021/09/05 09:28:39;;;;;;;16.95;15.20;;;17.00;99.90;;;;;;5100874;28;20080;-75
2021/09/05 09:31:26;;;;;;;17.90;15.95;;;17.00;99.90;;;;;;5085929;28;20047;-75
2021/09/05 09:33:56;;;;;;;23.40;16.33;;;17.10;99.90;;;;;;5103064;28;20051;-75
2021/09/05 09:36:27;;;;;;;17.65;15.55;;;17.10;99.90;;;;;;5096462;28;20675;-76
2021/09/05 09:38:56;;;;;;;19.52;15.80;;;17.20;99.90;;;;;;5078279;28;20047;-76
2021/09/05 09:41:33;;;;;;;18.00;15.82;;;17.30;99.90;;;;;;5086566;28;20086;-75
2021/09/05 09:44:04;;;;;;;18.08;15.82;;;17.40;99.90;;;;;;5082155;28;20050;-74
2021/09/05 09:46:32;;;;;;;18.48;14.38;;;17.50;99.90;;;;;;5085409;28;20066;-75
2021/09/05 09:49:00;;;;;;;18.00;15.63;;;17.70;99.90;;;;;;5102988;28;20525;-75
2021/09/05 09:51:26;;;;;;;19.38;14.32;;;17.80;99.90;;;;;;5133651;27;20066;-75
2021/09/05 09:53:53;;;;;;;15.75;14.05;;;18.00;99.90;;;;;;5099827;28;20055;-75
2021/09/05 09:56:21;;;;;;;18.27;14.57;;;18.10;99.90;;;;;;5082796;28;20447;-76
2021/09/05 09:58:59;;;;;;;17.13;14.48;;;18.20;99.90;;;;;;5086270;28;20046;-76
2021/09/05 10:01:27;;;;;;;15.73;13.93;;;18.40;99.90;;;;;;5086427;28;20047;-75
2021/09/05 10:03:54;;;;;;;15.38;13.07;;;18.40;99.90;;;;;;5079078;28;20052;-74
2021/09/05 10:06:25;;;;;;;16.92;13.80;;;18.50;99.90;;;;;;5095502;28;20051;-75
2021/09/05 10:08:55;;;;;;;16.25;13.43;;;18.70;99.90;;;;;;5072469;28;20044;-75
2021/09/05 10:11:22;;;;;;;17.92;14.27;;;18.90;99.90;;;;;;5096889;28;20073;-76
2021/09/05 10:13:55;;;;;;;17.20;14.05;;;19.00;99.00;;;;;;5096389;28;20707;-76
2021/09/05 10:16:21;;;;;;;17.65;15.70;;;19.00;99.60;;;;;;5069661;28;20079;-76
2021/09/05 10:18:50;;;;;;;17.52;15.07;;;19.10;99.30;;;;;;5049782;28;20127;-76
2021/09/05 10:21:20;;;;;;;18.17;15.88;;;19.20;98.70;;;;;;5064602;28;20045;-77
2021/09/05 10:23:55;;;;;;;24.02;16.92;;;19.10;98.30;;;;;;5061796;28;20050;-76
2021/09/05 10:26:22;;;;;;;17.58;14.48;;;19.10;98.50;;;;;;5082644;28;20071;-75
2021/09/05 10:28:53;;;;;;;20.55;15.88;;;19.10;98.50;;;;;;5073979;28;20036;-76
2021/09/05 10:31:31;;;;;;;21.65;15.40;;;19.20;98.60;;;;;;5075856;28;20045;-76
2021/09/05 10:33:58;;;;;;;18.40;15.30;;;19.30;98.50;;;;;;5079185;28;20155;-76
2021/09/05 10:36:25;;;;;;;20.33;16.08;;;19.30;98.80;;;;;;5081468;28;20049;-76
2021/09/05 10:39:04;;;;;;;19.63;15.15;;;19.50;98.50;;;;;;5078652;28;20048;-75
2021/09/05 10:41:30;;;;;;;19.02;16.38;;;19.50;97.50;;;;;;5059199;28;20040;-75
2021/09/05 10:44:04;;;;;;;18.80;15.85;;;19.50;97.80;;;;;;5046910;28;20045;-75
2021/09/05 10:46:34;;;;;;;20.65;15.63;;;19.60;97.90;;;;;;5076908;28;20093;-76
2021/09/05 10:49:05;;;;;;;20.75;15.25;;;19.70;96.90;;;;;;5076951;28;20053;-76
2021/09/05 10:51:38;;;;;;;16.85;14.48;;;19.70;97.00;;;;;;5061138;28;20083;-77
2021/09/05 10:54:06;;;;;;;16.50;14.23;;;19.80;96.60;;;;;;5059753;28;20047;-75
2021/09/05 10:56:41;;;;;;;19.38;15.98;;;19.80;96.30;;;;;;5059564;28;21102;-74
2021/09/05 10:59:11;;;;;;;18.33;15.32;;;19.80;96.50;;;;;;5079592;28;20048;-76
2021/09/05 11:01:38;;;;;;;24.00;17.10;;;19.70;96.90;;;;;;5082789;28;20406;-75
2021/09/05 11:04:17;;;;;;;22.42;18.52;;;19.90;97.00;;;;;;5065646;28;20036;-74
2021/09/05 11:07:03;;;;;;;22.23;17.27;;;20.00;96.20;;;;;;5061091;28;20537;-74
2021/09/05 11:09:29;;;;;;;20.60;15.77;;;20.00;96.30;;;;;;5048456;28;20133;-74
2021/09/05 11:12:10;;;;;;;19.23;15.23;;;20.00;96.20;;;;;;5089398;28;20080;-74
2021/09/05 11:14:36;;;;;;;20.00;16.52;;;20.10;96.00;;;;;;5070032;28;21836;-74
2021/09/05 11:17:08;;;;;;;20.52;15.98;;;20.20;95.80;;;;;;5094945;28;20055;-73
2021/09/05 11:19:41;;;;;;;16.67;14.73;;;20.20;94.90;;;;;;5095502;28;20756;-73
2021/09/05 11:22:08;;;;;;;19.27;14.90;;;20.20;95.30;;;;;;5076962;28;20051;-75
2021/09/05 11:24:34;;;;;;;18.27;14.60;;;20.20;95.00;;;;;;5097540;28;20051;-73
2021/09/05 11:27:05;;;;;;;21.30;17.73;;;20.20;95.10;;;;;;5098219;28;20124;-74
2021/09/05 11:29:32;;;;;;;20.67;15.68;;;20.30;95.40;;;;;;5097306;27;20043;-74
2021/09/05 11:32:09;;;;;;;21.48;17.10;;;20.40;94.70;;;;;;5091357;28;20105;-73
2021/09/05 11:34:38;;;;;;;20.30;16.55;;;20.40;94.40;;;;;;5092075;28;20044;-74
2021/09/05 11:37:05;;;;;;;21.90;17.63;;;20.50;95.00;;;;;;5090239;28;20043;-74
2021/09/05 11:39:32;;;;;;;22.02;16.83;;;20.50;94.70;;;;;;5080090;28;20050;-74
2021/09/05 11:42:02;;;;;;;20.02;14.98;;;20.60;94.50;;;;;;5079449;28;20477;-74
2021/09/05 11:44:37;;;;;;;20.15;16.83;;;20.60;93.90;;;;;;5082395;28;20057;-75
2021/09/05 11:47:19;;;;;;;22.77;17.13;;;20.60;93.70;;;;;;5094243;28;20055;-75
2021/09/05 11:49:57;;;;;;;23.10;16.13;;;20.60;93.50;;;;;;5081352;28;20505;-75
2021/09/05 11:52:24;;;;;;;19.77;15.45;;;20.60;93.80;;;;;;5090917;28;20051;-74
2021/09/05 11:55:00;;;;;;;18.80;15.02;;;20.70;94.00;;;;;;5072157;28;20085;-74
2021/09/05 11:57:26;;;;;;;18.40;15.35;;;20.80;94.00;;;;;;5075376;28;20048;-75
2021/09/05 11:59:53;;;;;;;19.90;13.55;;;20.90;93.40;;;;;;5073459;28;20044;-74
2021/09/05 12:02:37;;;;;;;21.02;14.20;;;21.00;93.70;;;;;;5095187;28;20497;-74
2021/09/05 12:05:05;;;;;;;20.15;14.73;;;21.10;93.00;;;;;;5091698;28;20032;-75
2021/09/05 12:07:39;;;;;;;19.23;15.02;;;21.10;91.90;;;;;;5094629;28;20052;-75
2021/09/05 12:10:10;;;;;;;16.20;13.98;;;21.00;92.60;;;;;;5087509;28;20040;-74
2021/09/05 12:12:40;;;;;;;14.82;11.95;;;21.00;93.20;;;;;;5078194;28;20050;-75
2021/09/05 12:15:18;;;;;;;17.88;12.63;;;21.20;93.50;;;;;;5070134;28;20457;-74
2021/09/05 12:17:46;;;;;;;17.33;12.95;;;21.30;92.60;;;;;;5073271;28;20406;-74
2021/09/05 12:20:13;;;;;;;15.45;12.95;;;21.40;92.10;;;;;;5058523;28;20052;-74
2021/09/05 12:22:50;;;;;;;16.50;12.93;;;21.30;92.30;;;;;;5095333;28;20036;-74
2021/09/05 12:25:18;;;;;;;16.30;12.10;;;21.40;91.90;;;;;;5089446;27;20595;-74
2021/09/05 12:28:06;;;;;;;13.70;11.23;;;21.40;91.30;;;;;;5076339;28;20051;-73
2021/09/05 12:30:47;;;;;;;14.48;10.60;;;21.40;91.00;;;;;;5093656;28;20052;-74
2021/09/05 12:33:16;;;;;;;14.07;11.27;;;21.30;90.80;;;;;;5094418;28;20184;-74